Time;durP1;ratioP1;P1;durP2;ratioP2;P2;SDS_P1;SDS_P2;PMS_P1;PMS_P2;Temp;Humidity;BMP_temperature;BMP_pressure;BME280_temperature;BME280_humidity;BME280_pressure;Samples;Min_cycle;Max_cycle;Signal;HPM_P1;HPM_P2
2021/03/20 00:00:32;;;;;;;13.55;6.50;;;1.60;99.90;;;;;;5107291;27;20024;-57
2021/03/20 00:02:57;;;;;;;9.50;5.95;;;1.70;99.90;;;;;;5100455;27;20046;-57
2021/03/20 00:05:24;;;;;;;8.30;5.78;;;1.70;99.90;;;;;;5107552;27;20110;-58
2021/03/20 00:07:56;;;;;;;10.73;6.85;;;1.70;99.90;;;;;;5111635;27;20028;-58
2021/03/20 00:10:24;;;;;;;9.77;5.78;;;1.70;99.90;;;;;;5112102;27;20031;-60
2021/03/20 00:12:51;;;;;;;10.50;6.10;;;1.70;99.90;;;;;;5118867;27;20076;-58
2021/03/20 00:15:21;;;;;;;8.45;6.13;;;1.70;99.90;;;;;;5121453;27;20039;-58
2021/03/20 00:17:51;;;;;;;10.80;6.80;;;1.70;99.90;;;;;;5108420;28;20042;-61
2021/03/20 00:20:33;;;;;;;8.55;5.97;;;1.60;99.90;;;;;;5100364;28;20020;-57
2021/03/20 00:22:59;;;;;;;11.63;6.68;;;1.60;99.90;;;;;;5103331;28;20099;-57
2021/03/20 00:25:25;;;;;;;10.68;6.55;;;1.50;99.90;;;;;;5103306;27;20103;-56
2021/03/20 00:27:51;;;;;;;9.73;6.30;;;1.50;99.90;;;;;;5116235;27;20028;-57
2021/03/20 00:30:17;;;;;;;9.18;6.50;;;1.50;99.90;;;;;;5102522;28;20032;-57
2021/03/20 00:32:43;;;;;;;10.23;6.38;;;1.50;99.90;;;;;;5107856;27;20039;-57
2021/03/20 00:35:11;;;;;;;10.40;6.18;;;1.40;99.90;;;;;;5105216;27;20035;-56
2021/03/20 00:37:37;;;;;;;10.32;6.90;;;1.30;99.90;;;;;;5099084;27;20032;-55
2021/03/20 00:40:05;;;;;;;9.38;6.28;;;1.30;99.90;;;;;;5096360;28;20405;-55
2021/03/20 00:42:31;;;;;;;11.40;6.97;;;1.30;99.90;;;;;;5093679;28;20505;-54
2021/03/20 00:44:56;;;;;;;11.13;7.25;;;1.20;99.90;;;;;;5112986;27;20024;-56
2021/03/20 00:47:22;;;;;;;13.77;6.27;;;1.20;99.90;;;;;;5094715;28;20381;-57
2021/03/20 00:49:48;;;;;;;12.80;6.70;;;1.20;99.90;;;;;;5105214;27;20042;-58
2021/03/20 00:52:14;;;;;;;11.43;6.03;;;1.10;99.90;;;;;;5117924;27;20850;-53
2021/03/20 00:54:39;;;;;;;11.27;7.43;;;1.00;99.90;;;;;;5104533;28;20419;-57
2021/03/20 00:57:05;;;;;;;9.73;6.63;;;1.00;99.90;;;;;;5092159;28;20051;-58
2021/03/20 00:59:31;;;;;;;10.87;6.60;;;1.00;99.90;;;;;;5094643;28;20115;-57
2021/03/20 01:01:57;;;;;;;8.93;6.83;;;0.90;99.90;;;;;;5098007;28;20441;-58
2021/03/20 01:04:22;;;;;;;10.33;6.73;;;0.90;99.90;;;;;;5117367;28;20038;-56
2021/03/20 01:06:48;;;;;;;8.20;6.47;;;0.90;99.90;;;;;;5103844;28;20020;-57
2021/03/20 01:09:13;;;;;;;13.47;6.53;;;0.90;99.90;;;;;;5115401;28;20548;-57
2021/03/20 01:11:39;;;;;;;10.23;6.77;;;0.90;99.90;;;;;;5096347;28;20025;-57
2021/03/20 01:14:05;;;;;;;10.80;7.35;;;0.80;99.90;;;;;;5109807;28;20641;-58
2021/03/20 01:16:34;;;;;;;11.47;7.17;;;0.90;99.90;;;;;;5113638;28;20043;-56
2021/03/20 01:19:00;;;;;;;10.98;6.70;;;0.90;99.90;;;;;;5109115;28;20020;-57
2021/03/20 01:21:25;;;;;;;10.38;6.85;;;0.80;99.90;;;;;;5137148;27;20027;-60
2021/03/20 01:23:52;;;;;;;9.35;6.68;;;0.80;99.90;;;;;;5114131;27;20123;-58
2021/03/20 01:26:18;;;;;;;14.37;7.20;;;0.80;99.90;;;;;;5097606;27;20051;-57
2021/03/20 01:28:44;;;;;;;11.57;7.05;;;0.80;99.90;;;;;;5095039;27;20673;-56
2021/03/20 01:31:12;;;;;;;10.75;6.68;;;0.80;99.90;;;;;;5097201;27;20028;-58
2021/03/20 01:33:37;;;;;;;13.38;7.53;;;0.80;99.90;;;;;;5113401;27;20043;-56
2021/03/20 01:36:04;;;;;;;10.10;6.70;;;0.70;99.90;;;;;;5112496;27;20028;-56
2021/03/20 01:38:29;;;;;;;9.10;6.60;;;0.70;99.90;;;;;;5110846;27;20031;-56
2021/03/20 01:40:59;;;;;;;11.48;7.25;;;0.70;99.90;;;;;;5099527;27;21597;-55
2021/03/20 01:43:27;;;;;;;11.83;7.37;;;0.70;99.90;;;;;;5106074;27;20032;-59
2021/03/20 01:45:54;;;;;;;11.13;7.27;;;0.70;99.90;;;;;;5114018;27;20034;-56
2021/03/20 01:48:28;;;;;;;8.90;6.43;;;0.70;99.90;;;;;;5120235;27;20027;-55
2021/03/20 01:51:03;;;;;;;12.13;7.23;;;0.60;99.90;;;;;;5120175;27;20129;-56
2021/03/20 01:53:44;;;;;;;9.75;6.68;;;0.60;99.90;;;;;;5128741;27;20524;-57
2021/03/20 01:56:43;;;;;;;11.40;7.13;;;0.60;99.90;;;;;;5111004;27;20035;-57
2021/03/20 01:59:11;;;;;;;12.23;7.40;;;0.50;99.90;;;;;;5079723;27;20140;-53
2021/03/20 02:01:38;;;;;;;12.87;7.70;;;0.50;99.90;;;;;;5105969;27;20038;-53
2021/03/20 02:04:04;;;;;;;20.93;8.47;;;0.50;99.90;;;;;;5112779;27;20058;-57
2021/03/20 02:06:30;;;;;;;12.90;7.77;;;0.50;99.90;;;;;;5111688;28;20027;-55
2021/03/20 02:08:59;;;;;;;11.40;7.27;;;0.50;99.90;;;;;;5112832;28;20031;-56
2021/03/20 02:12:03;;;;;;;10.50;8.17;;;0.50;99.90;;;;;;5109498;28;20049;-54
2021/03/20 02:14:53;;;;;;;19.57;7.97;;;0.50;99.90;;;;;;5104765;27;20038;-55
2021/03/20 02:17:47;;;;;;;10.20;7.83;;;0.40;99.90;;;;;;5107915;27;20076;-55
2021/03/20 02:20:29;;;;;;;12.30;8.27;;;0.30;99.90;;;;;;5110132;27;20048;-55
2021/03/20 02:23:35;;;;;;;12.43;8.10;;;0.30;99.90;;;;;;5109256;28;20550;-56
2021/03/20 02:26:35;;;;;;;11.57;7.93;;;0.20;99.90;;;;;;5109030;28;20031;-53
2021/03/20 02:29:31;;;;;;;14.57;8.67;;;0.20;99.90;;;;;;5127244;27;20490;-56
2021/03/20 02:32:31;;;;;;;13.83;8.13;;;0.20;99.90;;;;;;5098805;27;20062;-59
2021/03/20 02:35:02;;;;;;;12.10;7.97;;;0.10;99.90;;;;;;5112510;27;20413;-57
2021/03/20 02:37:46;;;;;;;9.93;7.13;;;0.10;99.90;;;;;;5119862;28;20024;-56
2021/03/20 02:40:22;;;;;;;13.65;7.88;;;0.10;99.90;;;;;;5120816;28;20088;-58
2021/03/20 02:42:58;;;;;;;11.27;8.57;;;0.10;99.90;;;;;;5109792;28;20054;-58
2021/03/20 02:45:40;;;;;;;14.20;8.40;;;0.10;99.90;;;;;;5106509;27;20066;-56
2021/03/20 02:48:09;;;;;;;13.37;8.80;;;0.00;99.90;;;;;;5106618;27;20618;-57
2021/03/20 02:51:04;;;;;;;13.20;8.93;;;-0.10;99.90;;;;;;5108378;28;20075;-56
2021/03/20 02:53:41;;;;;;;;;;;-0.10;99.90;;;;;;5112240;28;20455;-56
2021/03/20 02:56:12;;;;;;;12.37;7.50;;;-0.10;99.90;;;;;;5105902;28;19916;-52
2021/03/20 02:58:47;;;;;;;12.23;8.87;;;-0.10;99.90;;;;;;5104193;27;20041;-53
2021/03/20 03:01:18;;;;;;;14.73;9.57;;;-0.10;99.90;;;;;;5104836;27;20530;-56
2021/03/20 03:03:46;;;;;;;12.47;8.70;;;-0.10;99.90;;;;;;5110863;27;20080;-57
2021/03/20 03:06:28;;;;;;;15.70;9.43;;;-0.10;99.90;;;;;;5119507;27;20019;-57
2021/03/20 03:09:16;;;;;;;14.63;9.00;;;-0.10;99.90;;;;;;5109764;28;20019;-58
2021/03/20 03:11:59;;;;;;;13.63;9.07;;;-0.10;99.90;;;;;;5075406;27;20051;-55
2021/03/20 03:14:49;;;;;;;13.53;8.93;;;-0.10;99.90;;;;;;5098081;28;20441;-54
2021/03/20 03:17:16;;;;;;;15.53;8.70;;;-0.10;99.90;;;;;;5102454;28;20023;-52
2021/03/20 03:19:49;;;;;;;38.43;11.23;;;-0.10;99.90;;;;;;5110070;28;20512;-57
2021/03/20 03:22:24;;;;;;;14.35;8.32;;;-0.10;99.90;;;;;;5111882;28;20020;-54
2021/03/20 03:24:52;;;;;;;14.80;9.23;;;0.00;99.90;;;;;;5103015;28;20523;-57
2021/03/20 03:27:19;;;;;;;16.67;9.40;;;-0.10;99.90;;;;;;5099010;27;20024;-56
2021/03/20 03:29:45;;;;;;;14.00;9.00;;;-0.20;99.90;;;;;;5095926;27;20406;-56
2021/03/20 03:32:20;;;;;;;18.63;9.10;;;-0.20;99.90;;;;;;5106578;27;20023;-57
2021/03/20 03:35:09;;;;;;;15.07;9.50;;;-0.30;99.90;;;;;;5103469;28;20055;-53
2021/03/20 03:37:55;;;;;;;13.87;9.37;;;-0.30;99.90;;;;;;5109463;27;20047;-53
2021/03/20 03:40:30;;;;;;;14.23;9.23;;;-0.30;99.90;;;;;;5109369;27;20094;-58
2021/03/20 03:42:56;;;;;;;17.00;9.77;;;-0.40;99.90;;;;;;5096917;28;20027;-53
2021/03/20 03:45:22;;;;;;;13.67;9.63;;;-0.40;99.90;;;;;;5095778;28;20024;-57
2021/03/20 03:47:48;;;;;;;15.03;9.33;;;-0.40;99.90;;;;;;5101474;28;20027;-55
2021/03/20 03:50:19;;;;;;;16.53;10.20;;;-0.40;99.90;;;;;;5111552;28;20088;-56
2021/03/20 03:52:45;;;;;;;14.50;10.13;;;-0.50;99.90;;;;;;5104329;28;20024;-54
2021/03/20 03:55:12;;;;;;;16.63;10.43;;;-0.50;99.90;;;;;;5106455;28;20031;-53
2021/03/20 03:57:50;;;;;;;15.53;10.40;;;-0.60;99.90;;;;;;5097516;27;20031;-55
2021/03/20 04:00:38;;;;;;;14.90;10.30;;;-0.60;99.90;;;;;;5099226;27;20038;-57
2021/03/20 04:03:25;;;;;;;16.57;9.80;;;-0.60;99.90;;;;;;5106841;28;20107;-57
2021/03/20 04:06:14;;;;;;;18.67;10.67;;;-0.60;99.90;;;;;;5100924;28;20535;-56
2021/03/20 04:09:03;;;;;;;14.27;9.33;;;-0.60;99.90;;;;;;5110311;28;20020;-54
2021/03/20 04:11:49;;;;;;;18.50;10.27;;;-0.60;99.90;;;;;;5089118;27;20070;-54
2021/03/20 04:14:52;;;;;;;19.53;9.70;;;-0.50;99.90;;;;;;5136721;27;20146;-55
2021/03/20 04:17:35;;;;;;;16.43;8.60;;;-0.50;99.90;;;;;;5117002;27;20524;-58
2021/03/20 04:20:15;;;;;;;13.23;9.13;;;-0.40;99.90;;;;;;5119993;27;20472;-57
2021/03/20 04:22:57;;;;;;;12.87;8.57;;;-0.40;99.90;;;;;;5130766;27;20040;-54
2021/03/20 04:25:40;;;;;;;16.97;8.87;;;-0.40;99.90;;;;;;5130940;27;20022;-54
2021/03/20 04:28:14;;;;;;;14.30;8.40;;;-0.30;99.90;;;;;;5125552;27;20391;-57
2021/03/20 04:30:44;;;;;;;12.23;8.20;;;-0.30;99.90;;;;;;5127271;27;20098;-54
2021/03/20 04:33:29;;;;;;;13.53;9.13;;;-0.30;99.90;;;;;;5113478;27;20031;-57
2021/03/20 04:35:59;;;;;;;17.57;9.00;;;-0.20;99.90;;;;;;5121926;27;20073;-59
2021/03/20 04:38:26;;;;;;;13.57;8.60;;;-0.20;99.90;;;;;;5130266;27;20019;-57
2021/03/20 04:40:57;;;;;;;12.67;8.37;;;-0.20;99.90;;;;;;5127621;27;20117;-54
2021/03/20 04:43:26;;;;;;;12.43;7.83;;;-0.20;99.90;;;;;;5115582;27;20027;-55
2021/03/20 04:45:51;;;;;;;13.93;7.63;;;-0.10;99.90;;;;;;5113884;27;20027;-53
2021/03/20 04:48:20;;;;;;;11.33;8.43;;;-0.10;99.90;;;;;;5121397;27;20038;-57
2021/03/20 04:50:57;;;;;;;13.33;7.50;;;-0.10;99.90;;;;;;5114285;27;20023;-55
2021/03/20 04:53:23;;;;;;;13.17;7.83;;;-0.10;99.90;;;;;;5141939;27;20501;-59
2021/03/20 04:55:50;;;;;;;11.60;7.90;;;-0.10;99.90;;;;;;5114046;27;20030;-57
2021/03/20 04:58:32;;;;;;;11.40;7.07;;;-0.10;99.90;;;;;;5117742;27;20028;-54
2021/03/20 05:01:05;;;;;;;11.70;7.30;;;-0.10;99.90;;;;;;5118440;27;20039;-56
2021/03/20 05:03:41;;;;;;;13.00;8.30;;;-0.10;99.90;;;;;;5123348;27;20024;-53
2021/03/20 05:06:10;;;;;;;16.97;9.37;;;-0.10;99.90;;;;;;5120487;28;20028;-56
2021/03/20 05:08:44;;;;;;;13.77;8.63;;;-0.20;99.90;;;;;;5123595;28;20081;-56
2021/03/20 05:11:12;;;;;;;;;;;-0.20;99.90;;;;;;5120412;27;20441;-54
2021/03/20 05:14:01;;;;;;;10.33;6.77;;;-0.20;99.90;;;;;;5119378;27;20272;-58
2021/03/20 05:16:34;;;;;;;11.73;7.87;;;-0.10;99.90;;;;;;5127462;27;20051;-58
2021/03/20 05:18:59;;;;;;;12.57;8.10;;;-0.10;99.90;;;;;;5132159;28;20044;-57
2021/03/20 05:21:32;;;;;;;11.60;7.93;;;-0.10;99.90;;;;;;5129993;28;20024;-58
2021/03/20 05:24:00;;;;;;;13.43;7.70;;;-0.10;99.90;;;;;;5129580;28;20016;-53
2021/03/20 05:26:26;;;;;;;14.13;8.47;;;-0.10;99.90;;;;;;5118896;27;20011;-56
2021/03/20 05:28:52;;;;;;;11.80;8.13;;;-0.10;99.90;;;;;;5113701;27;20100;-54
2021/03/20 05:31:17;;;;;;;10.27;7.13;;;-0.10;99.90;;;;;;5111760;27;20031;-54
2021/03/20 05:33:46;;;;;;;8.87;6.87;;;-0.10;99.90;;;;;;5121582;27;20031;-54
2021/03/20 05:36:12;;;;;;;10.87;6.53;;;-0.10;99.90;;;;;;5119782;27;20027;-52
2021/03/20 05:38:38;;;;;;;14.60;7.17;;;-0.10;99.90;;;;;;5119443;27;20031;-52
2021/03/20 05:41:12;;;;;;;12.63;6.90;;;-0.10;99.90;;;;;;5115057;27;20031;-57
2021/03/20 05:44:07;;;;;;;10.00;5.97;;;-0.10;99.90;;;;;;5114111;27;20038;-54
2021/03/20 05:46:42;;;;;;;13.02;7.18;;;-0.10;99.90;;;;;;5075358;27;20126;-57
2021/03/20 05:49:32;;;;;;;11.20;7.37;;;-0.10;99.90;;;;;;5127770;27;20023;-56
2021/03/20 05:51:57;;;;;;;10.07;6.97;;;-0.20;99.90;;;;;;5120017;28;20051;-55
2021/03/20 05:54:31;;;;;;;14.00;7.73;;;-0.20;99.90;;;;;;5130241;28;20019;-60
2021/03/20 05:57:34;;;;;;;11.60;6.90;;;-0.20;99.90;;;;;;5114250;27;20019;-53
2021/03/20 06:00:24;;;;;;;11.77;7.00;;;-0.10;99.90;;;;;;5117378;27;20080;-56
2021/03/20 06:03:28;;;;;;;9.33;6.43;;;0.00;99.90;;;;;;5114579;27;20029;-54
2021/03/20 06:06:14;;;;;;;9.95;5.78;;;0.10;99.90;;;;;;5123459;27;20046;-57
2021/03/20 06:09:04;;;;;;;10.17;5.87;;;0.30;99.90;;;;;;5132225;27;20032;-56
2021/03/20 06:11:48;;;;;;;10.43;5.23;;;0.40;99.90;;;;;;5118190;27;20076;-57
2021/03/20 06:14:37;;;;;;;7.63;5.65;;;0.40;99.90;;;;;;5116929;27;20032;-54
2021/03/20 06:17:10;;;;;;;9.20;6.00;;;0.50;99.90;;;;;;5117033;27;20065;-56
2021/03/20 06:19:53;;;;;;;8.30;5.67;;;0.50;99.90;;;;;;5129438;27;20039;-55
2021/03/20 06:22:28;;;;;;;8.07;5.50;;;0.50;99.90;;;;;;5132110;27;20026;-58
2021/03/20 06:25:40;;;;;;;8.33;5.50;;;0.60;99.90;;;;;;5131273;27;20363;-54
2021/03/20 06:28:06;;;;;;;12.18;5.53;;;0.70;99.90;;;;;;5108147;27;20514;-57
2021/03/20 06:30:49;;;;;;;7.63;5.40;;;0.70;99.90;;;;;;5116752;27;20031;-57
2021/03/20 06:33:32;;;;;;;10.13;5.47;;;0.80;99.90;;;;;;5123114;27;20023;-55
2021/03/20 06:36:13;;;;;;;9.23;5.93;;;0.80;99.90;;;;;;5127643;27;20051;-57
2021/03/20 06:39:08;;;;;;;9.27;5.07;;;0.90;99.90;;;;;;5127887;27;20114;-57
2021/03/20 06:41:39;;;;;;;;;;;0.90;99.90;;;;;;5114363;27;20515;-53
2021/03/20 06:44:19;;;;;;;11.02;6.35;;;0.90;99.90;;;;;;5120892;27;19975;-53
2021/03/20 06:46:45;;;;;;;10.15;6.32;;;0.80;99.90;;;;;;5117357;27;20035;-58
2021/03/20 06:49:39;;;;;;;9.63;5.57;;;0.90;99.90;;;;;;5130592;27;20049;-58
2021/03/20 06:52:07;;;;;;;10.55;5.60;;;1.00;99.90;;;;;;5124439;27;20027;-54
2021/03/20 06:54:34;;;;;;;8.02;5.05;;;1.20;99.90;;;;;;5130151;27;20031;-58
2021/03/20 06:57:00;;;;;;;10.48;6.07;;;1.40;99.90;;;;;;5117469;27;20024;-54
2021/03/20 06:59:26;;;;;;;10.77;6.28;;;1.50;99.90;;;;;;5116519;27;20034;-59
2021/03/20 07:02:17;;;;;;;9.27;5.68;;;1.80;99.90;;;;;;5122079;27;20038;-57
2021/03/20 07:05:22;;;;;;;12.55;5.45;;;2.20;99.90;;;;;;5133828;27;20720;-54
2021/03/20 07:07:56;;;;;;;10.43;5.68;;;2.70;99.90;;;;;;5048659;28;20032;-56
2021/03/20 07:10:24;;;;;;;8.90;5.10;;;3.10;99.90;;;;;;5110223;27;20039;-58
2021/03/20 07:13:16;;;;;;;11.10;5.05;;;3.70;99.90;;;;;;5117003;27;20032;-56
2021/03/20 07:15:42;;;;;;;8.32;5.22;;;5.00;99.90;;;;;;5118741;27;22149;-57
2021/03/20 07:18:30;;;;;;;9.48;5.25;;;6.30;99.90;;;;;;5120185;27;20058;-59
2021/03/20 07:20:56;;;;;;;7.53;5.30;;;7.70;99.90;;;;;;5128663;27;20024;-57
2021/03/20 07:23:22;;;;;;;6.95;5.38;;;8.90;95.60;;;;;;5127778;27;20015;-59
2021/03/20 07:25:52;;;;;;;8.23;4.72;;;9.00;93.70;;;;;;5120895;27;20044;-58
2021/03/20 07:28:21;;;;;;;6.43;4.38;;;8.00;94.00;;;;;;5117398;27;20035;-59
2021/03/20 07:31:02;;;;;;;6.45;5.18;;;6.90;97.10;;;;;;5115196;27;20091;-57
2021/03/20 07:33:42;;;;;;;8.45;5.82;;;5.70;99.20;;;;;;5125554;27;20038;-56
2021/03/20 07:36:28;;;;;;;11.90;6.90;;;5.00;99.90;;;;;;5123678;27;20046;-57
2021/03/20 07:39:20;;;;;;;7.88;4.85;;;4.60;99.90;;;;;;5127155;27;20653;-53
2021/03/20 07:41:56;;;;;;;8.40;5.43;;;4.20;99.90;;;;;;5117925;27;20055;-51
2021/03/20 07:44:25;;;;;;;10.75;5.70;;;3.90;99.90;;;;;;5115942;27;20027;-55
2021/03/20 07:46:52;;;;;;;11.65;5.70;;;3.80;99.90;;;;;;5115649;27;20015;-53
2021/03/20 07:49:31;;;;;;;7.90;5.63;;;3.50;99.90;;;;;;5121155;27;20103;-56
2021/03/20 07:52:04;;;;;;;11.52;5.35;;;3.60;99.90;;;;;;5116007;27;20028;-56
2021/03/20 07:54:37;;;;;;;7.88;4.85;;;3.70;99.90;;;;;;5133194;27;20106;-60
2021/03/20 07:57:07;;;;;;;7.50;4.75;;;3.90;99.90;;;;;;5124188;27;20011;-60
2021/03/20 07:59:34;;;;;;;7.03;5.22;;;3.90;99.90;;;;;;5128432;27;20081;-60
2021/03/20 08:02:03;;;;;;;7.55;4.72;;;4.00;99.90;;;;;;5095389;27;20031;-58
2021/03/20 08:05:25;;;;;;;10.10;4.93;;;4.30;99.90;;;;;;5126688;27;20072;-59
2021/03/20 08:07:53;;;;;;;8.73;4.90;;;4.60;99.90;;;;;;5098920;27;20725;-53
2021/03/20 08:10:18;;;;;;;6.22;4.28;;;4.60;99.90;;;;;;5095860;27;20039;-59
2021/03/20 08:12:59;;;;;;;6.97;4.20;;;4.90;99.90;;;;;;5108676;27;20046;-57
2021/03/20 08:15:29;;;;;;;6.97;4.25;;;5.70;99.90;;;;;;5113775;27;20021;-57
2021/03/20 08:17:58;;;;;;;7.15;3.75;;;5.90;99.00;;;;;;5118633;27;20032;-58
2021/03/20 08:20:24;;;;;;;5.25;4.18;;;6.90;99.10;;;;;;5121480;27;20045;-58
2021/03/20 08:22:57;;;;;;;4.75;3.70;;;7.70;96.30;;;;;;5121917;27;20480;-57
2021/03/20 08:25:36;;;;;;;6.07;3.60;;;8.00;94.60;;;;;;5115846;27;20020;-61
2021/03/20 08:28:23;;;;;;;6.43;4.18;;;7.70;93.70;;;;;;5113035;27;20063;-57
2021/03/20 08:31:05;;;;;;;4.93;3.80;;;7.70;95.20;;;;;;5113761;27;20028;-59
2021/03/20 08:33:36;;;;;;;5.53;3.58;;;8.30;93.10;;;;;;5123249;27;20088;-58
2021/03/20 08:36:25;;;;;;;5.57;4.03;;;8.30;92.10;;;;;;5122696;27;20057;-58
2021/03/20 08:39:20;;;;;;;5.50;3.20;;;7.80;91.30;;;;;;5120004;27;20557;-59
2021/03/20 08:42:09;;;;;;;5.38;3.60;;;7.90;90.10;;;;;;5129808;27;20027;-58
2021/03/20 08:45:07;;;;;;;5.43;3.03;;;8.20;89.80;;;;;;5113324;27;20392;-58
2021/03/20 08:47:47;;;;;;;5.45;3.53;;;7.80;88.80;;;;;;5121202;27;20079;-58
2021/03/20 08:51:00;;;;;;;7.93;3.17;;;8.00;84.70;;;;;;5118041;27;20049;-55
2021/03/20 08:53:54;;;;;;;4.65;3.10;;;8.60;84.70;;;;;;5109397;27;20054;-60
2021/03/20 08:56:59;;;;;;;4.22;3.13;;;8.60;83.10;;;;;;5119151;27;20097;-60
2021/03/20 08:59:31;;;;;;;;;;;9.10;81.60;;;;;;5073185;28;20063;-59
2021/03/20 09:02:16;;;;;;;7.05;4.28;;;8.80;77.90;;;;;;5080893;27;19911;-57
2021/03/20 09:04:43;;;;;;;4.97;2.80;;;8.80;82.20;;;;;;5127993;27;20575;-57
2021/03/20 09:07:18;;;;;;;5.78;3.42;;;9.30;77.40;;;;;;5127511;27;20062;-62
2021/03/20 09:09:48;;;;;;;5.75;3.33;;;8.80;79.90;;;;;;5123557;28;20503;-58
2021/03/20 09:12:50;;;;;;;5.63;3.10;;;9.20;77.50;;;;;;5121437;27;20496;-59
2021/03/20 09:15:28;;;;;;;7.95;4.07;;;9.60;76.40;;;;;;5086573;27;20070;-58
2021/03/20 09:17:57;;;;;;;7.63;3.25;;;9.90;72.10;;;;;;5115274;27;20059;-58
2021/03/20 09:20:38;;;;;;;4.88;3.42;;;9.40;70.70;;;;;;5124232;28;20025;-60
2021/03/20 09:23:06;;;;;;;6.63;4.10;;;9.40;74.40;;;;;;5137140;27;20028;-57
2021/03/20 09:25:36;;;;;;;4.55;3.50;;;9.40;74.60;;;;;;5120091;27;20389;-57
2021/03/20 09:28:27;;;;;;;6.15;3.05;;;9.90;69.30;;;;;;5133681;27;20019;-59
2021/03/20 09:30:59;;;;;;;5.40;3.03;;;10.20;66.10;;;;;;5114971;27;20110;-58
2021/03/20 09:33:28;;;;;;;4.90;3.10;;;10.10;65.90;;;;;;5123483;27;20059;-61
2021/03/20 09:36:03;;;;;;;6.78;3.55;;;10.50;62.60;;;;;;5128316;28;20411;-55
2021/03/20 09:38:35;;;;;;;9.93;4.55;;;9.80;65.30;;;;;;5130319;27;20049;-57
2021/03/20 09:41:12;;;;;;;4.70;3.47;;;9.80;67.60;;;;;;5121594;27;20050;-57
2021/03/20 09:43:59;;;;;;;5.55;3.35;;;10.40;68.60;;;;;;5117599;27;20042;-59
2021/03/20 09:46:40;;;;;;;9.40;3.53;;;9.90;60.90;;;;;;5117563;27;20119;-57
2021/03/20 09:49:06;;;;;;;5.15;3.10;;;10.20;60.70;;;;;;5123091;27;20503;-57
2021/03/20 09:51:50;;;;;;;6.40;3.35;;;10.50;59.70;;;;;;5123738;27;20023;-57
2021/03/20 09:54:25;;;;;;;3.38;2.60;;;10.30;61.30;;;;;;5124354;27;20074;-57
2021/03/20 09:56:51;;;;;;;5.32;3.17;;;10.80;59.80;;;;;;5115223;27;20027;-55
2021/03/20 09:59:29;;;;;;;3.13;2.33;;;11.10;54.80;;;;;;5117316;27;20105;-59
2021/03/20 10:02:22;;;;;;;4.25;3.03;;;11.10;51.50;;;;;;5095455;27;20031;-59
2021/03/20 10:05:18;;;;;;;3.55;2.72;;;10.40;52.00;;;;;;5126184;27;20016;-56
2021/03/20 10:08:06;;;;;;;6.18;2.97;;;10.00;57.20;;;;;;5120936;27;20023;-58
2021/03/20 10:10:32;;;;;;;4.07;2.50;;;10.10;52.00;;;;;;5122553;27;20075;-60
2021/03/20 10:13:17;;;;;;;8.27;2.53;;;9.60;50.50;;;;;;5121273;27;20111;-55
2021/03/20 10:16:00;;;;;;;3.50;2.13;;;10.30;44.80;;;;;;5122110;27;20030;-59
2021/03/20 10:18:35;;;;;;;2.80;2.27;;;10.70;42.30;;;;;;5124447;27;20026;-57
2021/03/20 10:21:17;;;;;;;4.82;2.05;;;10.60;45.70;;;;;;5127403;27;20020;-59
2021/03/20 10:23:57;;;;;;;2.92;2.05;;;10.30;44.20;;;;;;5119490;27;20023;-59
2021/03/20 10:26:41;;;;;;;4.47;2.30;;;9.80;48.70;;;;;;5125590;27;20622;-61
2021/03/20 10:29:08;;;;;;;3.40;2.13;;;9.90;44.50;;;;;;5126498;27;20532;-58
2021/03/20 10:31:41;;;;;;;2.80;1.98;;;9.60;45.90;;;;;;5119741;27;20045;-59
2021/03/20 10:34:08;;;;;;;4.35;2.53;;;9.20;48.20;;;;;;5123756;27;20595;-53
2021/03/20 10:36:46;;;;;;;3.92;2.35;;;8.80;50.90;;;;;;5124099;27;20019;-57
2021/03/20 10:39:22;;;;;;;3.15;2.10;;;8.40;49.10;;;;;;5122151;27;20019;-55
2021/03/20 10:41:51;;;;;;;3.10;1.70;;;8.10;50.10;;;;;;5121099;27;20027;-59
2021/03/20 10:44:21;;;;;;;5.78;2.28;;;7.40;49.60;;;;;;5117130;27;20023;-58
2021/03/20 10:46:48;;;;;;;4.40;2.28;;;7.60;49.80;;;;;;5120792;27;20031;-54
2021/03/20 10:49:25;;;;;;;9.18;4.25;;;7.20;50.40;;;;;;5125813;27;20507;-57
2021/03/20 10:51:53;;;;;;;8.60;3.75;;;7.30;51.60;;;;;;5120267;27;20034;-57
2021/03/20 10:54:43;;;;;;;3.78;2.05;;;7.30;50.40;;;;;;5122185;27;20541;-57
2021/03/20 10:57:20;;;;;;;3.40;1.75;;;7.70;49.70;;;;;;5110787;27;20140;-57
2021/03/20 10:59:47;;;;;;;8.88;1.77;;;7.90;48.90;;;;;;5116728;27;20026;-55
2021/03/20 11:02:28;;;;;;;3.50;1.73;;;7.90;48.70;;;;;;5096599;27;20087;-57
2021/03/20 11:05:09;;;;;;;4.90;1.95;;;8.10;49.40;;;;;;5124006;27;20015;-60
2021/03/20 11:07:45;;;;;;;3.42;1.95;;;8.00;49.80;;;;;;5126018;27;20919;-58
2021/03/20 11:10:12;;;;;;;3.05;2.13;;;8.30;49.00;;;;;;5125011;27;20027;-56
2021/03/20 11:12:37;;;;;;;4.03;2.13;;;8.50;50.20;;;;;;5121301;27;20031;-60
2021/03/20 11:15:04;;;;;;;5.68;1.98;;;8.60;52.00;;;;;;5111161;27;20027;-55
2021/03/20 11:17:33;;;;;;;4.20;1.88;;;8.70;50.90;;;;;;5120162;27;20042;-65
2021/03/20 11:20:22;;;;;;;6.55;1.88;;;8.90;48.80;;;;;;5120687;27;20032;-59
2021/03/20 11:22:50;;;;;;;4.22;1.95;;;8.90;48.80;;;;;;5121034;27;20707;-60
2021/03/20 11:25:27;;;;;;;3.47;1.92;;;9.10;48.10;;;;;;5126559;27;20039;-57
2021/03/20 11:28:04;;;;;;;4.72;1.80;;;8.80;48.50;;;;;;5119729;27;20370;-59
2021/03/20 11:30:57;;;;;;;2.63;1.75;;;8.90;46.60;;;;;;5117183;27;20033;-57
2021/03/20 11:33:25;;;;;;;4.82;2.35;;;9.10;47.20;;;;;;5112433;27;20514;-59
2021/03/20 11:35:55;;;;;;;2.75;1.85;;;9.10;46.20;;;;;;5111120;27;20027;-57
2021/03/20 11:38:22;;;;;;;5.65;1.85;;;8.90;45.80;;;;;;5118154;27;20073;-57
2021/03/20 11:40:55;;;;;;;3.78;1.75;;;8.70;46.90;;;;;;5113227;27;20024;-58
2021/03/20 11:43:25;;;;;;;4.80;1.98;;;8.60;43.60;;;;;;5112942;27;20032;-55
2021/03/20 11:45:53;;;;;;;3.15;1.65;;;8.50;45.00;;;;;;5111258;27;20095;-59
2021/03/20 11:48:40;;;;;;;4.07;2.00;;;8.50;45.70;;;;;;5114305;27;20092;-59
2021/03/20 11:51:13;;;;;;;2.45;1.50;;;8.30;45.20;;;;;;5120643;27;20019;-58
2021/03/20 11:53:48;;;;;;;2.85;1.73;;;7.90;45.20;;;;;;5121405;27;20019;-58
2021/03/20 11:56:17;;;;;;;3.08;1.58;;;8.10;44.20;;;;;;5113338;27;20027;-59
2021/03/20 11:58:52;;;;;;;4.15;1.55;;;8.10;42.20;;;;;;5118157;27;20108;-57
2021/03/20 12:01:33;;;;;;;3.10;1.52;;;8.10;45.00;;;;;;5095199;27;20401;-58
2021/03/20 12:04:26;;;;;;;2.65;1.55;;;8.00;44.20;;;;;;5108184;27;20035;-56
2021/03/20 12:07:12;;;;;;;4.80;1.83;;;8.10;43.40;;;;;;5118618;27;20121;-58
2021/03/20 12:09:38;;;;;;;4.40;1.83;;;8.40;43.70;;;;;;5113333;27;20608;-57
2021/03/20 12:12:05;;;;;;;2.83;1.60;;;8.30;40.50;;;;;;5113372;27;20114;-60
2021/03/20 12:14:43;;;;;;;2.47;1.90;;;8.20;42.10;;;;;;5117055;27;20028;-60
2021/03/20 12:17:09;;;;;;;6.50;2.30;;;8.20;44.40;;;;;;5118027;27;20054;-56
2021/03/20 12:19:51;;;;;;;4.60;1.95;;;8.00;48.30;;;;;;5128375;27;20222;-56
2021/03/20 12:22:30;;;;;;;4.57;1.80;;;8.20;47.60;;;;;;5123314;27;20019;-57
2021/03/20 12:25:24;;;;;;;3.35;1.63;;;8.20;47.90;;;;;;5127320;27;20011;-56
2021/03/20 12:27:53;;;;;;;2.85;1.63;;;8.40;44.00;;;;;;5097483;27;20028;-57
2021/03/20 12:30:28;;;;;;;4.90;2.03;;;8.30;46.30;;;;;;5113733;27;20027;-54
2021/03/20 12:33:13;;;;;;;4.07;1.80;;;8.40;46.40;;;;;;5114104;27;20106;-57
2021/03/20 12:35:44;;;;;;;3.33;1.83;;;8.40;44.90;;;;;;5121014;27;20446;-53
2021/03/20 12:38:17;;;;;;;2.65;1.50;;;8.30;42.80;;;;;;5123290;27;20035;-56
2021/03/20 12:40:58;;;;;;;1.50;1.27;;;8.20;44.50;;;;;;5122542;27;20072;-57
2021/03/20 12:43:35;;;;;;;2.35;1.40;;;8.30;42.90;;;;;;5113139;27;20028;-56
2021/03/20 12:46:04;;;;;;;2.78;1.30;;;8.40;40.70;;;;;;5118809;27;20019;-56
2021/03/20 12:48:32;;;;;;;2.08;1.40;;;8.10;41.70;;;;;;5123335;27;20026;-56
2021/03/20 12:51:05;;;;;;;2.55;1.70;;;8.20;42.30;;;;;;5124486;27;20034;-57
2021/03/20 12:53:31;;;;;;;4.75;1.80;;;7.90;43.70;;;;;;5120616;27;20023;-59
2021/03/20 12:55:56;;;;;;;4.35;1.73;;;8.00;44.00;;;;;;5124958;27;20026;-56
2021/03/20 12:58:22;;;;;;;3.63;1.70;;;8.20;44.30;;;;;;5112112;27;20024;-58
2021/03/20 13:00:48;;;;;;;8.60;2.67;;;8.30;46.10;;;;;;5095462;27;20083;-54
2021/03/20 13:03:13;;;;;;;5.25;1.88;;;8.20;44.40;;;;;;5120010;27;20553;-54
2021/03/20 13:05:42;;;;;;;3.75;1.88;;;8.10;45.50;;;;;;5117838;27;20027;-57
2021/03/20 13:08:09;;;;;;;4.00;2.30;;;8.20;46.80;;;;;;5113090;27;20032;-54
2021/03/20 13:10:34;;;;;;;3.88;1.77;;;8.10;46.00;;;;;;5115822;27;20046;-57
2021/03/20 13:13:00;;;;;;;5.60;2.60;;;8.00;47.40;;;;;;5114014;27;20421;-58
2021/03/20 13:15:26;;;;;;;5.05;2.40;;;7.90;47.60;;;;;;5110754;27;20023;-57
2021/03/20 13:17:52;;;;;;;3.50;2.13;;;8.00;51.30;;;;;;5114805;27;20026;-58
2021/03/20 13:20:20;;;;;;;4.28;2.03;;;8.00;51.20;;;;;;5117791;27;20031;-60
2021/03/20 13:22:46;;;;;;;3.63;1.88;;;8.00;50.10;;;;;;5118306;27;20507;-58
2021/03/20 13:25:22;;;;;;;7.43;2.63;;;8.10;51.60;;;;;;5114843;27;20019;-58
2021/03/20 13:27:47;;;;;;;3.63;2.28;;;8.10;50.20;;;;;;5114848;27;20445;-55
2021/03/20 13:30:14;;;;;;;3.53;1.90;;;8.10;49.70;;;;;;5125879;27;20102;-58
2021/03/20 13:32:39;;;;;;;5.57;2.17;;;8.10;48.10;;;;;;5119808;27;20046;-56